SAS1716 EKCH-EFHK
Flight info
| Callsign | SAS1716 |
|---|---|
| Flight time | 1h 19m |
| Altitude | 37000 |
| Route | KEMAX Q44 IDPAL DCT MOVIS DCT ALAMI DCT OKEVU DCT EVADI Y370 DIVAM |
| Aircraft | B738/M-SDE2E3FGHIRWXY/LB1 |
Departure
| Time | 2026-05-06 16:05 |
|---|---|
| Airport | Copenhagen Kastrup Airport (EKCH) |
Arrival
| Time | 2026-05-06 17:25 |
|---|---|
| Airport | Helsinki Vantaa Airport (EFHK) |
| Time | Latitude | Longitude | Altitude | Speed | Heading |
|---|---|---|---|---|---|
| 2026-05-06 15:39 | 55.62721 | 12.65324 | 23 ft | 0 kts | 17° |
| 2026-05-06 15:55 | 55.62708 | 12.65317 | 24 ft | 4 kts | 15° |
| 2026-05-06 15:55 | 55.62682 | 12.65308 | 24 ft | 3 kts | 2° |
| 2026-05-06 15:55 | 55.62661 | 12.65308 | 25 ft | 4 kts | 352° |
| 2026-05-06 15:56 | 55.62635 | 12.65317 | 26 ft | 4 kts | 351° |
| 2026-05-06 15:56 | 55.62614 | 12.65319 | 24 ft | 4 kts | 359° |
| 2026-05-06 15:56 | 55.62599 | 12.65320 | 27 ft | 0 kts | 359° |
| 2026-05-06 15:59 | 55.62600 | 12.65320 | 27 ft | 0 kts | 359° |
| 2026-05-06 15:59 | 55.62625 | 12.65315 | 25 ft | 6 kts | 346° |
| 2026-05-06 15:59 | 55.62651 | 12.65264 | 24 ft | 6 kts | 281° |
| 2026-05-06 15:59 | 55.62635 | 12.65200 | 24 ft | 6 kts | 220° |
| 2026-05-06 16:00 | 55.62574 | 12.65182 | 23 ft | 14 kts | 180° |
| 2026-05-06 16:00 | 55.62460 | 12.65194 | 23 ft | 18 kts | 173° |
| 2026-05-06 16:00 | 55.62327 | 12.65202 | 23 ft | 20 kts | 182° |
| 2026-05-06 16:00 | 55.62191 | 12.65157 | 24 ft | 21 kts | 211° |
| 2026-05-06 16:01 | 55.62065 | 12.65015 | 26 ft | 22 kts | 212° |
| 2026-05-06 16:01 | 55.61932 | 12.64862 | 24 ft | 24 kts | 213° |
| 2026-05-06 16:01 | 55.61790 | 12.64700 | 23 ft | 25 kts | 213° |
| 2026-05-06 16:01 | 55.61646 | 12.64534 | 23 ft | 24 kts | 212° |
| 2026-05-06 16:02 | 55.61510 | 12.64381 | 23 ft | 23 kts | 214° |
| 2026-05-06 16:02 | 55.61381 | 12.64226 | 23 ft | 22 kts | 213° |
| 2026-05-06 16:02 | 55.61253 | 12.64083 | 24 ft | 21 kts | 212° |
| 2026-05-06 16:02 | 55.61129 | 12.63942 | 24 ft | 21 kts | 213° |
| 2026-05-06 16:03 | 55.61009 | 12.63805 | 24 ft | 20 kts | 212° |
| 2026-05-06 16:03 | 55.60894 | 12.63668 | 24 ft | 20 kts | 213° |
| 2026-05-06 16:03 | 55.60782 | 12.63538 | 23 ft | 19 kts | 213° |
| 2026-05-06 16:03 | 55.60673 | 12.63412 | 23 ft | 18 kts | 216° |
| 2026-05-06 16:04 | 55.60576 | 12.63273 | 23 ft | 18 kts | 219° |
| 2026-05-06 16:04 | 55.60469 | 12.63273 | 23 ft | 17 kts | 136° |
| 2026-05-06 16:04 | 55.60415 | 12.63426 | 24 ft | 13 kts | 88° |
| 2026-05-06 16:04 | 55.60471 | 12.63548 | 23 ft | 17 kts | 41° |
| 2026-05-06 16:05 | 55.60734 | 12.63956 | 25 ft | 91 kts | 41° |
| 2026-05-06 16:05 | 55.61399 | 12.64986 | 29 ft | 163 kts | 44° |
| 2026-05-06 16:05 | 55.62352 | 12.66376 | 638 ft | 184 kts | 43° |
| 2026-05-06 16:05 | 55.63353 | 12.67846 | 1539 ft | 196 kts | 45° |
| 2026-05-06 16:06 | 55.64431 | 12.69541 | 1901 ft | 216 kts | 46° |
| 2026-05-06 16:06 | 55.65626 | 12.71426 | 2100 ft | 244 kts | 44° |
| 2026-05-06 16:06 | 55.66949 | 12.73451 | 2768 ft | 254 kts | 43° |
| 2026-05-06 16:06 | 55.68284 | 12.75463 | 3790 ft | 252 kts | 43° |
| 2026-05-06 16:07 | 55.69637 | 12.77491 | 4690 ft | 256 kts | 42° |
| 2026-05-06 16:07 | 55.70991 | 12.79515 | 5675 ft | 255 kts | 41° |
| 2026-05-06 16:07 | 55.72347 | 12.81545 | 6558 ft | 258 kts | 41° |
| 2026-05-06 16:07 | 55.73736 | 12.83625 | 7281 ft | 265 kts | 40° |
| 2026-05-06 16:08 | 55.75144 | 12.85774 | 8092 ft | 269 kts | 41° |
| 2026-05-06 16:08 | 55.76562 | 12.87996 | 8844 ft | 275 kts | 41° |
| 2026-05-06 16:08 | 55.78014 | 12.90285 | 9570 ft | 283 kts | 41° |
| 2026-05-06 16:08 | 55.79505 | 12.92639 | 10258 ft | 291 kts | 40° |
| 2026-05-06 16:09 | 55.81076 | 12.95116 | 10486 ft | 315 kts | 40° |
| 2026-05-06 16:09 | 55.82769 | 12.97788 | 10844 ft | 332 kts | 40° |
| 2026-05-06 16:09 | 55.84519 | 13.00554 | 11456 ft | 341 kts | 40° |
| 2026-05-06 16:09 | 55.86304 | 13.03379 | 12164 ft | 345 kts | 40° |
| 2026-05-06 16:10 | 55.88110 | 13.06242 | 12937 ft | 349 kts | 40° |
| 2026-05-06 16:10 | 55.89939 | 13.09143 | 13651 ft | 354 kts | 40° |
| 2026-05-06 16:10 | 55.91793 | 13.12087 | 14271 ft | 360 kts | 40° |
| 2026-05-06 16:10 | 55.93674 | 13.15079 | 14902 ft | 364 kts | 40° |
| 2026-05-06 16:11 | 55.95572 | 13.18100 | 15566 ft | 368 kts | 40° |
| 2026-05-06 16:11 | 55.97488 | 13.21156 | 16231 ft | 372 kts | 40° |
| 2026-05-06 16:11 | 55.98773 | 13.23206 | 16643 ft | 375 kts | 40° |
| 2026-05-06 16:11 | 56.00728 | 13.26329 | 17280 ft | 379 kts | 40° |
| 2026-05-06 16:12 | 56.02703 | 13.29491 | 17928 ft | 383 kts | 40° |
| 2026-05-06 16:12 | 56.04700 | 13.32691 | 18506 ft | 387 kts | 40° |
| 2026-05-06 16:12 | 56.06717 | 13.35928 | 19060 ft | 391 kts | 41° |
| 2026-05-06 16:12 | 56.08750 | 13.39194 | 19612 ft | 395 kts | 41° |
| 2026-05-06 16:13 | 56.10805 | 13.42501 | 20146 ft | 399 kts | 41° |
| 2026-05-06 16:13 | 56.12855 | 13.45891 | 20583 ft | 407 kts | 46° |
| 2026-05-06 16:13 | 56.14646 | 13.49883 | 21011 ft | 414 kts | 53° |
| 2026-05-06 16:13 | 56.16300 | 13.54125 | 21580 ft | 416 kts | 55° |
| 2026-05-06 16:14 | 56.17677 | 13.57762 | 22040 ft | 419 kts | 56° |
| 2026-05-06 16:14 | 56.19246 | 13.61907 | 22521 ft | 423 kts | 55° |
| 2026-05-06 16:14 | 56.20916 | 13.66274 | 23004 ft | 427 kts | 55° |
| 2026-05-06 16:14 | 56.22600 | 13.70627 | 23481 ft | 431 kts | 54° |
| 2026-05-06 16:15 | 56.24326 | 13.75053 | 23900 ft | 434 kts | 54° |
| 2026-05-06 16:15 | 56.26093 | 13.79563 | 24346 ft | 437 kts | 54° |
| 2026-05-06 16:15 | 56.27823 | 13.83978 | 24773 ft | 439 kts | 54° |
| 2026-05-06 16:15 | 56.29589 | 13.88486 | 25173 ft | 441 kts | 55° |
| 2026-05-06 16:16 | 56.31339 | 13.92963 | 25965 ft | 433 kts | 55° |
| 2026-05-06 16:16 | 56.33070 | 13.97402 | 26372 ft | 437 kts | 55° |
| 2026-05-06 16:16 | 56.34840 | 14.01952 | 26448 ft | 448 kts | 55° |
| 2026-05-06 16:16 | 56.36636 | 14.06578 | 26767 ft | 452 kts | 55° |
| 2026-05-06 16:17 | 56.38439 | 14.11228 | 27225 ft | 452 kts | 55° |
| 2026-05-06 16:17 | 56.40242 | 14.15892 | 27658 ft | 454 kts | 55° |
| 2026-05-06 16:17 | 56.42053 | 14.20581 | 28019 ft | 456 kts | 56° |
| 2026-05-06 16:17 | 56.43870 | 14.25294 | 28369 ft | 459 kts | 56° |
| 2026-05-06 16:18 | 56.45697 | 14.30044 | 28708 ft | 462 kts | 56° |
| 2026-05-06 16:18 | 56.47538 | 14.34824 | 29064 ft | 464 kts | 56° |
| 2026-05-06 16:18 | 56.49391 | 14.39619 | 29402 ft | 466 kts | 56° |
| 2026-05-06 16:18 | 56.51254 | 14.44434 | 29734 ft | 468 kts | 56° |
| 2026-05-06 16:19 | 56.53128 | 14.49283 | 30046 ft | 471 kts | 56° |
| 2026-05-06 16:19 | 56.55010 | 14.54164 | 30189 ft | 477 kts | 56° |
| 2026-05-06 16:19 | 56.58849 | 14.64162 | 30558 ft | 484 kts | 56° |
| 2026-05-06 16:20 | 56.60745 | 14.69115 | 31250 ft | 474 kts | 56° |
| 2026-05-06 16:20 | 56.62623 | 14.74032 | 31694 ft | 472 kts | 56° |
| 2026-05-06 16:20 | 56.64496 | 14.78948 | 31951 ft | 474 kts | 57° |
| 2026-05-06 16:20 | 56.66368 | 14.83873 | 32175 ft | 476 kts | 57° |
| 2026-05-06 16:21 | 56.68251 | 14.88838 | 32512 ft | 475 kts | 57° |
| 2026-05-06 16:21 | 56.70120 | 14.93774 | 32919 ft | 473 kts | 57° |
| 2026-05-06 16:21 | 56.71977 | 14.98686 | 33292 ft | 471 kts | 57° |
| 2026-05-06 16:21 | 56.73836 | 15.03618 | 33600 ft | 471 kts | 57° |
| 2026-05-06 16:22 | 56.75692 | 15.08549 | 33865 ft | 473 kts | 57° |
| 2026-05-06 16:22 | 56.77553 | 15.13504 | 34043 ft | 475 kts | 57° |
| 2026-05-06 16:22 | 56.79416 | 15.18476 | 34288 ft | 475 kts | 57° |
| 2026-05-06 16:22 | 56.81279 | 15.23456 | 34545 ft | 474 kts | 57° |
| 2026-05-06 16:23 | 56.83112 | 15.28367 | 34752 ft | 475 kts | 57° |
| 2026-05-06 16:23 | 56.84975 | 15.33367 | 34935 ft | 476 kts | 57° |
| 2026-05-06 16:23 | 56.86835 | 15.38370 | 35144 ft | 477 kts | 57° |
| 2026-05-06 16:23 | 56.88697 | 15.43390 | 35380 ft | 476 kts | 57° |
| 2026-05-06 16:24 | 56.90552 | 15.48399 | 35701 ft | 474 kts | 57° |
| 2026-05-06 16:24 | 56.92399 | 15.53399 | 35901 ft | 475 kts | 57° |
| 2026-05-06 16:24 | 56.94250 | 15.58422 | 36056 ft | 477 kts | 57° |
| 2026-05-06 16:24 | 56.96105 | 15.63462 | 36204 ft | 479 kts | 57° |
| 2026-05-06 16:25 | 56.99838 | 15.73642 | 36488 ft | 482 kts | 57° |
| 2026-05-06 16:25 | 57.01703 | 15.78745 | 36732 ft | 481 kts | 57° |
| 2026-05-06 16:25 | 57.03566 | 15.83850 | 36930 ft | 481 kts | 57° |
| 2026-05-06 16:26 | 57.07302 | 15.94125 | 36963 ft | 486 kts | 57° |
| 2026-05-06 16:26 | 57.11035 | 16.04434 | 36962 ft | 483 kts | 57° |
| 2026-05-06 16:27 | 57.14736 | 16.14700 | 36961 ft | 480 kts | 57° |
| 2026-05-06 16:27 | 57.18416 | 16.24949 | 36959 ft | 478 kts | 57° |
| 2026-05-06 16:28 | 57.22082 | 16.35161 | 36975 ft | 477 kts | 55° |
| 2026-05-06 16:28 | 57.26147 | 16.44851 | 36975 ft | 477 kts | 51° |
| 2026-05-06 16:29 | 57.30394 | 16.54312 | 36983 ft | 479 kts | 50° |
| 2026-05-06 16:29 | 57.34636 | 16.63857 | 36981 ft | 481 kts | 51° |
| 2026-05-06 16:30 | 57.37983 | 16.71515 | 36992 ft | 483 kts | 51° |
| 2026-05-06 16:30 | 57.42538 | 16.82049 | 36977 ft | 485 kts | 51° |
| 2026-05-06 16:31 | 57.46245 | 16.90668 | 36992 ft | 487 kts | 51° |
| 2026-05-06 16:31 | 57.50475 | 17.00538 | 36985 ft | 489 kts | 52° |
| 2026-05-06 16:32 | 57.54619 | 17.10244 | 36962 ft | 490 kts | 52° |
| 2026-05-06 16:32 | 57.58852 | 17.20197 | 36977 ft | 490 kts | 52° |
| 2026-05-06 16:33 | 57.62891 | 17.29731 | 36983 ft | 490 kts | 52° |
| 2026-05-06 16:34 | 57.69218 | 17.44745 | 36993 ft | 490 kts | 52° |
| 2026-05-06 16:34 | 57.73422 | 17.54772 | 36992 ft | 489 kts | 52° |
| 2026-05-06 16:35 | 57.77568 | 17.64703 | 36986 ft | 488 kts | 52° |
| 2026-05-06 16:35 | 57.81743 | 17.74747 | 36996 ft | 488 kts | 52° |
| 2026-05-06 16:36 | 57.85874 | 17.84725 | 37001 ft | 487 kts | 52° |
| 2026-05-06 16:36 | 57.90015 | 17.94770 | 36991 ft | 487 kts | 52° |
| 2026-05-06 16:37 | 57.94154 | 18.04854 | 36989 ft | 486 kts | 52° |
| 2026-05-06 16:37 | 57.98276 | 18.14936 | 36997 ft | 486 kts | 53° |
| 2026-05-06 16:38 | 58.02386 | 18.25035 | 37009 ft | 486 kts | 53° |
| 2026-05-06 16:38 | 58.06495 | 18.35172 | 37002 ft | 487 kts | 53° |
| 2026-05-06 16:39 | 58.10609 | 18.45367 | 37004 ft | 488 kts | 53° |
| 2026-05-06 16:39 | 58.14716 | 18.55585 | 37007 ft | 489 kts | 53° |
| 2026-05-06 16:40 | 58.18829 | 18.65865 | 37005 ft | 490 kts | 53° |
| 2026-05-06 16:40 | 58.22943 | 18.76192 | 37031 ft | 491 kts | 53° |
| 2026-05-06 16:41 | 58.27059 | 18.86567 | 37002 ft | 492 kts | 53° |
| 2026-05-06 16:41 | 58.31176 | 18.96991 | 37005 ft | 493 kts | 53° |
| 2026-05-06 16:42 | 58.35284 | 19.07439 | 37002 ft | 494 kts | 53° |
| 2026-05-06 16:42 | 58.39394 | 19.17937 | 37010 ft | 494 kts | 53° |
| 2026-05-06 16:43 | 58.43461 | 19.28372 | 37030 ft | 494 kts | 53° |
| 2026-05-06 16:43 | 58.47552 | 19.38916 | 37015 ft | 495 kts | 53° |
| 2026-05-06 16:44 | 58.51666 | 19.49566 | 37011 ft | 495 kts | 54° |
| 2026-05-06 16:44 | 58.55718 | 19.60102 | 37009 ft | 494 kts | 54° |
| 2026-05-06 16:45 | 58.59783 | 19.70717 | 37012 ft | 494 kts | 54° |
| 2026-05-06 16:45 | 58.63841 | 19.81365 | 37010 ft | 494 kts | 54° |
| 2026-05-06 16:46 | 58.67886 | 19.92025 | 37015 ft | 494 kts | 54° |
| 2026-05-06 16:46 | 58.71923 | 20.02711 | 37016 ft | 494 kts | 54° |
| 2026-05-06 16:47 | 58.75957 | 20.13438 | 37013 ft | 494 kts | 54° |
| 2026-05-06 16:47 | 58.79975 | 20.24173 | 37018 ft | 494 kts | 54° |
| 2026-05-06 16:48 | 58.83992 | 20.34952 | 37020 ft | 494 kts | 54° |
| 2026-05-06 16:48 | 58.87999 | 20.45755 | 37017 ft | 495 kts | 54° |
| 2026-05-06 16:49 | 58.92004 | 20.56601 | 37014 ft | 496 kts | 54° |
| 2026-05-06 16:49 | 58.96007 | 20.67492 | 37025 ft | 496 kts | 54° |
| 2026-05-06 16:50 | 59.00006 | 20.78425 | 37028 ft | 497 kts | 54° |
| 2026-05-06 16:50 | 59.03995 | 20.89374 | 37017 ft | 497 kts | 55° |
| 2026-05-06 16:51 | 59.07778 | 21.00611 | 37011 ft | 495 kts | 59° |
| 2026-05-06 16:51 | 59.09532 | 21.06273 | 36984 ft | 482 kts | 59° |
| 2026-05-06 16:51 | 59.11240 | 21.11843 | 36528 ft | 479 kts | 60° |
| 2026-05-06 16:51 | 59.12958 | 21.17433 | 35823 ft | 484 kts | 60° |
| 2026-05-06 16:52 | 59.14702 | 21.23072 | 35166 ft | 489 kts | 60° |
| 2026-05-06 16:52 | 59.16467 | 21.28744 | 34700 ft | 488 kts | 61° |
| 2026-05-06 16:52 | 59.18229 | 21.34399 | 34251 ft | 487 kts | 62° |
| 2026-05-06 16:52 | 59.19979 | 21.40025 | 33826 ft | 484 kts | 62° |
| 2026-05-06 16:53 | 59.21718 | 21.45630 | 33377 ft | 482 kts | 62° |
| 2026-05-06 16:53 | 59.23421 | 21.51133 | 32989 ft | 478 kts | 62° |
| 2026-05-06 16:53 | 59.25134 | 21.56690 | 32634 ft | 475 kts | 61° |
| 2026-05-06 16:53 | 59.26827 | 21.62203 | 32228 ft | 472 kts | 61° |
| 2026-05-06 16:54 | 59.28512 | 21.67703 | 31837 ft | 470 kts | 61° |
| 2026-05-06 16:54 | 59.30184 | 21.73169 | 31472 ft | 467 kts | 61° |
| 2026-05-06 16:54 | 59.31844 | 21.78608 | 31100 ft | 464 kts | 60° |
| 2026-05-06 16:54 | 59.33489 | 21.84010 | 30771 ft | 460 kts | 60° |
| 2026-05-06 16:55 | 59.35122 | 21.89382 | 30419 ft | 457 kts | 60° |
| 2026-05-06 16:55 | 59.36743 | 21.94721 | 30071 ft | 454 kts | 60° |
| 2026-05-06 16:55 | 59.38352 | 22.00028 | 29673 ft | 451 kts | 60° |
| 2026-05-06 16:55 | 59.39947 | 22.05302 | 29320 ft | 447 kts | 60° |
| 2026-05-06 16:56 | 59.41521 | 22.10518 | 28971 ft | 443 kts | 59° |
| 2026-05-06 16:56 | 59.43088 | 22.15723 | 28601 ft | 440 kts | 59° |
| 2026-05-06 16:56 | 59.44637 | 22.20879 | 28289 ft | 436 kts | 59° |
| 2026-05-06 16:56 | 59.46173 | 22.26005 | 27904 ft | 434 kts | 59° |
| 2026-05-06 16:57 | 59.47695 | 22.31095 | 27541 ft | 431 kts | 59° |
| 2026-05-06 16:57 | 59.49209 | 22.36166 | 27193 ft | 429 kts | 59° |
| 2026-05-06 16:57 | 59.50712 | 22.41213 | 26850 ft | 426 kts | 59° |
| 2026-05-06 16:57 | 59.52189 | 22.46187 | 26510 ft | 423 kts | 59° |
| 2026-05-06 16:58 | 59.53665 | 22.51181 | 26170 ft | 421 kts | 59° |
| 2026-05-06 16:58 | 59.55133 | 22.56161 | 25849 ft | 418 kts | 59° |
| 2026-05-06 16:58 | 59.56587 | 22.61105 | 25523 ft | 416 kts | 59° |
| 2026-05-06 16:58 | 59.58032 | 22.66027 | 25192 ft | 414 kts | 59° |
| 2026-05-06 16:59 | 59.59472 | 22.70941 | 24866 ft | 412 kts | 59° |
| 2026-05-06 16:59 | 59.60900 | 22.75827 | 24506 ft | 410 kts | 60° |
| 2026-05-06 16:59 | 59.62319 | 22.80688 | 24198 ft | 408 kts | 60° |
| 2026-05-06 16:59 | 59.63732 | 22.85541 | 23889 ft | 406 kts | 60° |
| 2026-05-06 17:00 | 59.65135 | 22.90368 | 23554 ft | 404 kts | 60° |
| 2026-05-06 17:00 | 59.66059 | 22.93548 | 23298 ft | 403 kts | 60° |
| 2026-05-06 17:00 | 59.67451 | 22.98354 | 22938 ft | 401 kts | 60° |
| 2026-05-06 17:00 | 59.68829 | 23.03126 | 22608 ft | 398 kts | 60° |
| 2026-05-06 17:01 | 59.70191 | 23.07865 | 22344 ft | 394 kts | 60° |
| 2026-05-06 17:01 | 59.71539 | 23.12576 | 21999 ft | 392 kts | 60° |
| 2026-05-06 17:01 | 59.72873 | 23.17244 | 21674 ft | 389 kts | 60° |
| 2026-05-06 17:01 | 59.74201 | 23.21905 | 21346 ft | 387 kts | 60° |
| 2026-05-06 17:02 | 59.75525 | 23.26554 | 21025 ft | 384 kts | 60° |
| 2026-05-06 17:02 | 59.76832 | 23.31154 | 20700 ft | 382 kts | 60° |
| 2026-05-06 17:02 | 59.78132 | 23.35741 | 20386 ft | 380 kts | 60° |
| 2026-05-06 17:02 | 59.79424 | 23.40305 | 20063 ft | 378 kts | 60° |
| 2026-05-06 17:03 | 59.80710 | 23.44858 | 19749 ft | 376 kts | 60° |
| 2026-05-06 17:03 | 59.81986 | 23.49381 | 19464 ft | 374 kts | 59° |
| 2026-05-06 17:03 | 59.83255 | 23.53890 | 19129 ft | 373 kts | 59° |
| 2026-05-06 17:03 | 59.84519 | 23.58390 | 18801 ft | 372 kts | 59° |
| 2026-05-06 17:04 | 59.85781 | 23.62872 | 18485 ft | 371 kts | 59° |
| 2026-05-06 17:04 | 59.87041 | 23.67324 | 18139 ft | 369 kts | 59° |
| 2026-05-06 17:04 | 59.88302 | 23.71776 | 17778 ft | 367 kts | 59° |
| 2026-05-06 17:04 | 59.89547 | 23.76184 | 17433 ft | 364 kts | 59° |
| 2026-05-06 17:05 | 59.90783 | 23.80579 | 17114 ft | 362 kts | 59° |
| 2026-05-06 17:05 | 59.91959 | 23.84982 | 16781 ft | 360 kts | 63° |
| 2026-05-06 17:05 | 59.92970 | 23.89528 | 16484 ft | 357 kts | 66° |
| 2026-05-06 17:05 | 59.93898 | 23.94029 | 16180 ft | 355 kts | 67° |
| 2026-05-06 17:06 | 59.94825 | 23.98584 | 15868 ft | 352 kts | 66° |
| 2026-05-06 17:06 | 59.95748 | 24.03092 | 15560 ft | 350 kts | 66° |
| 2026-05-06 17:06 | 59.96674 | 24.07565 | 15245 ft | 348 kts | 66° |
| 2026-05-06 17:06 | 59.97602 | 24.12014 | 14941 ft | 346 kts | 66° |
| 2026-05-06 17:07 | 59.98524 | 24.16420 | 14632 ft | 343 kts | 65° |
| 2026-05-06 17:07 | 59.99446 | 24.20814 | 14327 ft | 341 kts | 65° |
| 2026-05-06 17:07 | 60.00359 | 24.25171 | 14033 ft | 340 kts | 65° |
| 2026-05-06 17:07 | 60.01272 | 24.29532 | 13698 ft | 339 kts | 64° |
| 2026-05-06 17:08 | 60.02175 | 24.33854 | 13341 ft | 337 kts | 65° |
| 2026-05-06 17:08 | 60.03076 | 24.38172 | 13008 ft | 335 kts | 65° |
| 2026-05-06 17:08 | 60.03969 | 24.42459 | 12689 ft | 333 kts | 65° |
| 2026-05-06 17:08 | 60.04854 | 24.46721 | 12362 ft | 330 kts | 65° |
| 2026-05-06 17:09 | 60.05729 | 24.50939 | 12046 ft | 328 kts | 65° |
| 2026-05-06 17:09 | 60.06597 | 24.55138 | 11728 ft | 325 kts | 65° |
| 2026-05-06 17:09 | 60.07462 | 24.59320 | 11410 ft | 323 kts | 65° |
| 2026-05-06 17:09 | 60.08315 | 24.63455 | 11099 ft | 321 kts | 65° |
| 2026-05-06 17:10 | 60.09162 | 24.67576 | 10781 ft | 319 kts | 66° |
| 2026-05-06 17:10 | 60.10016 | 24.71656 | 10475 ft | 316 kts | 62° |
| 2026-05-06 17:10 | 60.11264 | 24.75203 | 10167 ft | 309 kts | 45° |
| 2026-05-06 17:10 | 60.12716 | 24.78333 | 9949 ft | 304 kts | 45° |
| 2026-05-06 17:11 | 60.14117 | 24.81373 | 9944 ft | 291 kts | 45° |
| 2026-05-06 17:11 | 60.15465 | 24.84301 | 9926 ft | 281 kts | 45° |
| 2026-05-06 17:11 | 60.16790 | 24.87178 | 9941 ft | 281 kts | 45° |
| 2026-05-06 17:11 | 60.18117 | 24.90061 | 9931 ft | 283 kts | 45° |
| 2026-05-06 17:12 | 60.19462 | 24.92986 | 9558 ft | 287 kts | 45° |
| 2026-05-06 17:12 | 60.20818 | 24.95940 | 9112 ft | 286 kts | 45° |
| 2026-05-06 17:12 | 60.22154 | 24.98858 | 8675 ft | 282 kts | 45° |
| 2026-05-06 17:12 | 60.23473 | 25.01744 | 8250 ft | 278 kts | 45° |
| 2026-05-06 17:13 | 60.24753 | 25.04548 | 7831 ft | 274 kts | 45° |
| 2026-05-06 17:13 | 60.26037 | 25.07363 | 7415 ft | 271 kts | 45° |
| 2026-05-06 17:13 | 60.27299 | 25.10132 | 6997 ft | 267 kts | 45° |
| 2026-05-06 17:13 | 60.28551 | 25.12884 | 6603 ft | 264 kts | 46° |
| 2026-05-06 17:14 | 60.29784 | 25.15597 | 6187 ft | 261 kts | 46° |
| 2026-05-06 17:14 | 60.31002 | 25.18280 | 5756 ft | 258 kts | 46° |
| 2026-05-06 17:14 | 60.32209 | 25.20940 | 5331 ft | 256 kts | 46° |
| 2026-05-06 17:14 | 60.33406 | 25.23579 | 4918 ft | 254 kts | 46° |
| 2026-05-06 17:15 | 60.34595 | 25.26209 | 4494 ft | 253 kts | 46° |
| 2026-05-06 17:15 | 60.35773 | 25.28815 | 4065 ft | 251 kts | 46° |
| 2026-05-06 17:15 | 60.36948 | 25.31418 | 3659 ft | 250 kts | 46° |
| 2026-05-06 17:15 | 60.38116 | 25.34022 | 3246 ft | 250 kts | 46° |
| 2026-05-06 17:16 | 60.39288 | 25.36635 | 2842 ft | 251 kts | 47° |
| 2026-05-06 17:16 | 60.40464 | 25.39253 | 2415 ft | 251 kts | 46° |
| 2026-05-06 17:16 | 60.41630 | 25.41834 | 2213 ft | 242 kts | 46° |
| 2026-05-06 17:16 | 60.42728 | 25.44264 | 2184 ft | 225 kts | 46° |
| 2026-05-06 17:17 | 60.43855 | 25.46201 | 2172 ft | 202 kts | 20° |
| 2026-05-06 17:17 | 60.45137 | 25.46593 | 2196 ft | 179 kts | 350° |
| 2026-05-06 17:17 | 60.46228 | 25.45645 | 2230 ft | 169 kts | 322° |
| 2026-05-06 17:17 | 60.47191 | 25.44242 | 2209 ft | 170 kts | 321° |
| 2026-05-06 17:18 | 60.48142 | 25.42821 | 2198 ft | 170 kts | 319° |
| 2026-05-06 17:18 | 60.48811 | 25.40944 | 2185 ft | 165 kts | 281° |
| 2026-05-06 17:18 | 60.48777 | 25.38663 | 2208 ft | 163 kts | 261° |
| 2026-05-06 17:18 | 60.48599 | 25.36352 | 2215 ft | 169 kts | 261° |
| 2026-05-06 17:19 | 60.48410 | 25.34017 | 2198 ft | 167 kts | 260° |
| 2026-05-06 17:19 | 60.48141 | 25.31756 | 2174 ft | 165 kts | 241° |
| 2026-05-06 17:19 | 60.47463 | 25.29932 | 2217 ft | 163 kts | 233° |
| 2026-05-06 17:19 | 60.46739 | 25.28112 | 2198 ft | 167 kts | 231° |
| 2026-05-06 17:20 | 60.45975 | 25.26331 | 2202 ft | 168 kts | 230° |
| 2026-05-06 17:20 | 60.45192 | 25.24575 | 2191 ft | 167 kts | 229° |
| 2026-05-06 17:20 | 60.44409 | 25.22843 | 2199 ft | 167 kts | 229° |
| 2026-05-06 17:20 | 60.43624 | 25.21119 | 2187 ft | 166 kts | 229° |
| 2026-05-06 17:21 | 60.42842 | 25.19400 | 2202 ft | 165 kts | 228° |
| 2026-05-06 17:21 | 60.42064 | 25.17694 | 2189 ft | 165 kts | 228° |
| 2026-05-06 17:21 | 60.41287 | 25.15986 | 2183 ft | 164 kts | 228° |
| 2026-05-06 17:21 | 60.40514 | 25.14290 | 2187 ft | 165 kts | 228° |
| 2026-05-06 17:22 | 60.39738 | 25.12585 | 2143 ft | 167 kts | 228° |
| 2026-05-06 17:22 | 60.38948 | 25.10850 | 1939 ft | 166 kts | 227° |
| 2026-05-06 17:22 | 60.38178 | 25.09156 | 1705 ft | 159 kts | 227° |
| 2026-05-06 17:22 | 60.37466 | 25.07590 | 1502 ft | 143 kts | 227° |
| 2026-05-06 17:23 | 60.36810 | 25.06147 | 1301 ft | 135 kts | 227° |
| 2026-05-06 17:23 | 60.36178 | 25.04756 | 1110 ft | 134 kts | 227° |
| 2026-05-06 17:23 | 60.35547 | 25.03369 | 936 ft | 137 kts | 228° |
| 2026-05-06 17:23 | 60.34899 | 25.01941 | 742 ft | 139 kts | 227° |
| 2026-05-06 17:24 | 60.34247 | 25.00505 | 537 ft | 138 kts | 226° |
| 2026-05-06 17:24 | 60.33607 | 24.99096 | 365 ft | 136 kts | 227° |
| 2026-05-06 17:24 | 60.32965 | 24.97687 | 182 ft | 136 kts | 227° |
| 2026-05-06 17:24 | 60.32376 | 24.96384 | 161 ft | 107 kts | 227° |
| 2026-05-06 17:25 | 60.32001 | 24.95562 | 161 ft | 44 kts | 226° |
| 2026-05-06 17:25 | 60.31787 | 24.95257 | 162 ft | 26 kts | 201° |
| 2026-05-06 17:25 | 60.31671 | 24.95200 | 161 ft | 13 kts | 171° |
| 2026-05-06 17:25 | 60.31647 | 24.95342 | 160 ft | 13 kts | 55° |
| 2026-05-06 17:26 | 60.31707 | 24.95471 | 160 ft | 13 kts | 47° |
| 2026-05-06 17:26 | 60.31766 | 24.95599 | 160 ft | 12 kts | 49° |
| 2026-05-06 17:26 | 60.31823 | 24.95728 | 160 ft | 13 kts | 47° |
| 2026-05-06 17:26 | 60.31907 | 24.95910 | 160 ft | 21 kts | 47° |
| 2026-05-06 17:27 | 60.32007 | 24.96132 | 161 ft | 21 kts | 48° |
| 2026-05-06 17:27 | 60.32105 | 24.96350 | 161 ft | 21 kts | 47° |
| 2026-05-06 17:27 | 60.32201 | 24.96559 | 160 ft | 20 kts | 47° |
| 2026-05-06 17:27 | 60.32222 | 24.96762 | 160 ft | 17 kts | 143° |
| 2026-05-06 17:28 | 60.32125 | 24.96878 | 160 ft | 16 kts | 150° |
| 2026-05-06 17:28 | 60.32030 | 24.96983 | 160 ft | 15 kts | 152° |
| 2026-05-06 17:28 | 60.31965 | 24.97053 | 160 ft | 7 kts | 152° |
| 2026-05-06 17:28 | 60.31928 | 24.97048 | 160 ft | 6 kts | 225° |
| 2026-05-06 17:29 | 60.31910 | 24.96992 | 160 ft | 2 kts | 241° |
| 2026-05-06 17:29 | 60.31905 | 24.96973 | 160 ft | 1 kts | 243° |
| 2026-05-06 17:29 | 60.31903 | 24.96966 | 160 ft | 0 kts | 243° |